Urb Las Cumbres, Puerto Rico
Current Conditions -  °F | °C
As of 11:56 PM on Saturday 20 Dec 2014 (Local Time) from TJSJ Reporting Station
Scattered Clouds Scattered Clouds  
Wind Chill: 78°   Ceiling: Unl
Heat Index: 80°   Visibility: 10mi
Dew Point: 72°   Wind: 7mph
Humidity: 81%   Direction: 90°E
Pressure: 30.05"   Gusts: NA
Location:  18.3754°N, 66.0577°W
Report Text: TJSJ 210356Z 09006KT 10SM FEW026 SCT080 26/22 A3005 RMK AO2 SLP175 T02560222 402940228
Loading
Personal Weather Stations






























Interactive Weather Map New forecast layout! Learn more

10-Day Weather Forecast

Advertisements
Track Severe Weather on mobile